Squall — ZCIF2 — position and weather

sailwx.info

Track history (hours):
 
Tides and Currents Weather Stations Pressure Air Temp Water Temp Dewpoint Dewpoint Depression Visibility Wind Speed Wind Dir Waves Ship Positions

Squall

Last reported at 2014-Aug-20 19:12 UTC. Time now 2014-Aug-23 13:27 UTC.
Position N 43°49' E 007°47'.

Length 55 m; draft 5 m.

Type: Sailing vessel. MMSI: 319811000.

Date/timePositionNaut miles runAvg speedWind from/ knotsBaromVisibWave heightAir tempDewpointWater temp
2014-Aug-20 19:12N 43°49' E 007°47'0 0.0
2014-Aug-20 18:21N 43°49' E 007°47'0 0.0
2014-Aug-20 14:14N 43°49' E 007°47'34 1.4
2014-Aug-19 14:29N 43°53' E 008°34'1010.5
2014-Aug-19 13:33N 43°54' E 008°47'1010.3
2014-Aug-19 12:33N 43°56' E 009°01'10 9.9
2014-Aug-19 11:33N 43°57' E 009°15'1010.0
2014-Aug-19 10:33N 43°58' E 009°29'1010.2
2014-Aug-19 09:33N 43°60' E 009°43'7 7.4
2014-Aug-19 08:33N 44°04' E 009°51'1 1.3
2014-Aug-19 07:32N 44°05' E 009°52'0 0.0
2014-Aug-19 06:32N 44°05' E 009°52'0 0.0
2014-Aug-19 05:32N 44°05' E 009°52'0 0.0
2014-Aug-19 04:32N 44°05' E 009°52'0 0.0
2014-Aug-19 03:32N 44°05' E 009°52'0 0.0
2014-Aug-19 02:32N 44°05' E 009°52'0 0.0
2014-Aug-19 01:32N 44°05' E 009°52'0 0.0
2014-Aug-19 00:32N 44°05' E 009°52'0 0.0
2014-Aug-18 23:32N 44°05' E 009°52'0 0.0
2014-Aug-18 22:32N 44°05' E 009°52'0 0.0
2014-Aug-18 21:32N 44°05' E 009°52'0 0.0
2014-Aug-18 20:32N 44°05' E 009°52'0 0.0
2014-Aug-18 19:32N 44°05' E 009°52'0 0.0
2014-Aug-18 18:32N 44°05' E 009°52'0 0.0
2014-Aug-18 17:32N 44°05' E 009°52'0 0.0
2014-Aug-18 16:32N 44°05' E 009°52'0 0.0
2014-Aug-18 15:32N 44°05' E 009°52'0 0.0
2014-Aug-18 14:32N 44°05' E 009°52'0 0.0
2014-Aug-18 13:32N 44°05' E 009°52'0 0.0
2014-Aug-18 12:31N 44°05' E 009°52'0 0.0
2014-Aug-18 11:31N 44°05' E 009°52'0 0.0
2014-Aug-18 10:31N 44°05' E 009°52'0 0.0
2014-Aug-18 09:28N 44°05' E 009°52'0 0.0
2014-Aug-18 08:33N 44°05' E 009°52'0 0.0
2014-Aug-18 07:33N 44°05' E 009°52'0 0.0
2014-Aug-18 06:33N 44°05' E 009°52'1 0.7
2014-Aug-18 05:33N 44°05' E 009°51'0 0.0
2014-Aug-18 04:33N 44°05' E 009°51'0 0.0
2014-Aug-18 03:33N 44°05' E 009°51'0 0.0
2014-Aug-18 02:33N 44°05' E 009°51'0 0.0
2014-Aug-18 01:33N 44°05' E 009°51'0 0.0
2014-Aug-18 00:33N 44°05' E 009°51'38 6.4
2014-Aug-17 18:33N 43°29' E 010°07'10 9.8
2014-Aug-17 17:33N 43°20' E 010°12'9 9.4
2014-Aug-17 16:33N 43°11' E 010°17'9 9.4
2014-Aug-17 15:33N 43°03' E 010°23'10 9.9
2014-Aug-17 14:33N 42°54' E 010°29'10 9.7
2014-Aug-17 13:33N 42°46' E 010°36'  
Track history (hours):
 
Tides and Currents Weather Stations Pressure Air Temp Water Temp Dewpoint Dewpoint Depression Visibility Wind Speed Wind Dir Waves Ship Positions

Squall

Last reported at 2014-Aug-20 19:12 UTC. Time now 2014-Aug-23 13:27 UTC.
Position N 43°49' E 007°47'.

Length 55 m; draft 5 m.

Type: Sailing vessel. MMSI: 319811000.

Date/timePositionNaut miles runAvg speedWind from/ knotsBaromVisibWave heightAir tempDewpointWater temp
2014-Aug-20 19:12N 43°49' E 007°47'0 0.0
2014-Aug-20 18:21N 43°49' E 007°47'0 0.0
2014-Aug-20 14:14N 43°49' E 007°47'34 1.4
2014-Aug-19 14:29N 43°53' E 008°34'1010.5
2014-Aug-19 13:33N 43°54' E 008°47'1010.3
2014-Aug-19 12:33N 43°56' E 009°01'10 9.9
2014-Aug-19 11:33N 43°57' E 009°15'1010.0
2014-Aug-19 10:33N 43°58' E 009°29'1010.2
2014-Aug-19 09:33N 43°60' E 009°43'7 7.4
2014-Aug-19 08:33N 44°04' E 009°51'1 1.3
2014-Aug-19 07:32N 44°05' E 009°52'0 0.0
2014-Aug-19 06:32N 44°05' E 009°52'0 0.0
2014-Aug-19 05:32N 44°05' E 009°52'0 0.0
2014-Aug-19 04:32N 44°05' E 009°52'0 0.0
2014-Aug-19 03:32N 44°05' E 009°52'0 0.0
2014-Aug-19 02:32N 44°05' E 009°52'0 0.0
2014-Aug-19 01:32N 44°05' E 009°52'0 0.0
2014-Aug-19 00:32N 44°05' E 009°52'0 0.0
2014-Aug-18 23:32N 44°05' E 009°52'0 0.0
2014-Aug-18 22:32N 44°05' E 009°52'0 0.0
2014-Aug-18 21:32N 44°05' E 009°52'0 0.0
2014-Aug-18 20:32N 44°05' E 009°52'0 0.0
2014-Aug-18 19:32N 44°05' E 009°52'0 0.0
2014-Aug-18 18:32N 44°05' E 009°52'0 0.0
2014-Aug-18 17:32N 44°05' E 009°52'0 0.0
2014-Aug-18 16:32N 44°05' E 009°52'0 0.0
2014-Aug-18 15:32N 44°05' E 009°52'0 0.0
2014-Aug-18 14:32N 44°05' E 009°52'0 0.0
2014-Aug-18 13:32N 44°05' E 009°52'0 0.0
2014-Aug-18 12:31N 44°05' E 009°52'0 0.0
2014-Aug-18 11:31N 44°05' E 009°52'0 0.0
2014-Aug-18 10:31N 44°05' E 009°52'0 0.0
2014-Aug-18 09:28N 44°05' E 009°52'0 0.0
2014-Aug-18 08:33N 44°05' E 009°52'0 0.0
2014-Aug-18 07:33N 44°05' E 009°52'0 0.0
2014-Aug-18 06:33N 44°05' E 009°52'1 0.7
2014-Aug-18 05:33N 44°05' E 009°51'0 0.0
2014-Aug-18 04:33N 44°05' E 009°51'0 0.0
2014-Aug-18 03:33N 44°05' E 009°51'0 0.0
2014-Aug-18 02:33N 44°05' E 009°51'0 0.0
2014-Aug-18 01:33N 44°05' E 009°51'0 0.0
2014-Aug-18 00:33N 44°05' E 009°51'38 6.4
2014-Aug-17 18:33N 43°29' E 010°07'10 9.8
2014-Aug-17 17:33N 43°20' E 010°12'9 9.4
2014-Aug-17 16:33N 43°11' E 010°17'9 9.4
2014-Aug-17 15:33N 43°03' E 010°23'10 9.9
2014-Aug-17 14:33N 42°54' E 010°29'10 9.7
2014-Aug-17 13:33N 42°46' E 010°36'  

Dump ship's entire track history